Time;durP1;ratioP1;P1;durP2;ratioP2;P2;SDS_P1;SDS_P2;PMS_P1;PMS_P2;Temp;Humidity;BMP_temperature;BMP_pressure;BME280_temperature;BME280_humidity;BME280_pressure;Samples;Min_cycle;Max_cycle;Signal;HPM_P1;HPM_P2
2023/06/19 00:04:17;;;;;;;13.18;11.88;;;;;;;;;;10290218;28;20650;-76
2023/06/19 00:09:18;;;;;;;13.85;12.52;;;;;;;;;;10305792;28;20066;-76
2023/06/19 00:14:18;;;;;;;15.05;13.30;;;;;;;;;;10298627;28;20046;-75
2023/06/19 00:19:18;;;;;;;13.70;12.40;;;;;;;;;;10304638;28;20588;-76
2023/06/19 00:24:19;;;;;;;13.23;11.93;;;;;;;;;;10317543;28;20298;-75
2023/06/19 00:29:19;;;;;;;12.10;11.00;;;;;;;;;;10305490;28;20212;-75
2023/06/19 00:34:19;;;;;;;13.33;11.93;;;;;;;;;;10301605;28;20050;-75
2023/06/19 00:39:20;;;;;;;12.27;11.07;;;;;;;;;;10299149;28;20062;-76
2023/06/19 00:44:21;;;;;;;13.33;12.00;;;;;;;;;;10323696;28;20038;-78
2023/06/19 00:49:21;;;;;;;13.40;12.10;;;;;;;;;;10312087;28;20387;-76
2023/06/19 00:54:23;;;;;;;13.55;12.15;;;;;;;;;;10304665;28;20050;-78
2023/06/19 00:59:23;;;;;;;12.55;11.35;;;;;;;;;;10306611;28;20528;-76
2023/06/19 01:04:25;;;;;;;12.10;11.00;;;;;;;;;;10310751;23;20058;-78
2023/06/19 01:09:29;;;;;;;12.82;11.52;;;;;;;;;;10287123;28;20505;-79
2023/06/19 01:14:41;;;;;;;13.15;11.85;;;;;;;;;;10273310;28;20054;-75
2023/06/19 01:19:41;;;;;;;12.30;11.10;;;;;;;;;;10294419;28;20436;-75
2023/06/19 01:24:42;;;;;;;12.55;11.35;;;;;;;;;;10276217;28;20050;-74
2023/06/19 01:29:42;;;;;;;13.03;11.77;;;;;;;;;;10290983;28;20102;-74
2023/06/19 01:34:43;;;;;;;11.85;10.73;;;;;;;;;;10293539;28;20061;-75
2023/06/19 01:39:44;;;;;;;13.10;11.52;;;;;;;;;;10293186;28;20463;-74
2023/06/19 01:44:45;;;;;;;12.83;11.53;;;;;;;;;;10292621;28;20035;-74
2023/06/19 01:49:46;;;;;;;11.43;10.27;;;;;;;;;;10292015;28;20744;-75
2023/06/19 01:54:46;;;;;;;12.45;11.25;;;;;;;;;;10274780;28;20290;-77
2023/06/19 01:59:48;;;;;;;12.97;11.67;;;;;;;;;;10283998;28;20059;-74
2023/06/19 02:04:48;;;;;;;12.90;11.60;;;;;;;;;;10248755;28;20055;-73
2023/06/19 02:09:49;;;;;;;13.00;11.70;;;;;;;;;;10259389;28;20054;-74
2023/06/19 02:14:49;;;;;;;12.33;11.13;;;;;;;;;;10230656;28;20047;-74
2023/06/19 02:19:49;;;;;;;12.47;11.27;;;;;;;;;;10262599;28;20321;-76
2023/06/19 02:24:51;;;;;;;13.03;11.63;;;;;;;;;;10232749;28;20050;-77
2023/06/19 02:29:52;;;;;;;12.95;11.65;;;;;;;;;;10257293;28;20051;-74
2023/06/19 02:34:52;;;;;;;12.35;11.15;;;;;;;;;;10255496;28;20050;-75
2023/06/19 02:39:53;;;;;;;12.73;11.43;;;;;;;;;;10248339;28;20502;-77
2023/06/19 02:44:53;;;;;;;12.83;11.57;;;;;;;;;;10264325;28;20505;-77
2023/06/19 02:49:57;;;;;;;12.88;11.55;;;;;;;;;;10256543;28;20356;-76
2023/06/19 02:54:57;;;;;;;13.50;12.18;;;;;;;;;;10244196;28;20062;-74
2023/06/19 02:59:58;;;;;;;12.48;11.30;;;;;;;;;;10244833;28;20047;-74
2023/06/19 03:04:58;;;;;;;13.07;11.77;;;;;;;;;;10257929;28;20051;-75
2023/06/19 03:09:59;;;;;;;12.52;11.32;;;;;;;;;;10260551;28;20222;-74
2023/06/19 03:15:00;;;;;;;12.68;11.38;;;;;;;;;;10246475;28;20055;-76
2023/06/19 03:20:05;;;;;;;12.30;11.13;;;;;;;;;;10238107;28;20098;-79
2023/06/19 03:25:07;;;;;;;11.75;10.55;;;;;;;;;;10248191;28;20043;-74
2023/06/19 03:30:08;;;;;;;11.38;10.27;;;;;;;;;;10260904;28;20065;-78
2023/06/19 03:35:14;;;;;;;11.93;10.73;;;;;;;;;;10244984;28;20051;-74
2023/06/19 03:40:17;;;;;;;11.38;10.30;;;;;;;;;;10246076;28;20055;-74
2023/06/19 03:45:22;;;;;;;11.65;10.55;;;;;;;;;;10259774;28;20053;-76
2023/06/19 03:50:22;;;;;;;11.27;10.18;;;;;;;;;;10244006;28;20050;-75
2023/06/19 03:55:23;;;;;;;11.87;10.67;;;;;;;;;;10250971;28;20046;-75
2023/06/19 04:00:23;;;;;;;11.50;10.40;;;;;;;;;;10246365;28;20126;-74
2023/06/19 04:05:27;;;;;;;11.32;10.20;;;;;;;;;;10244057;28;20101;-73
2023/06/19 04:10:27;;;;;;;10.75;9.75;;;;;;;;;;10263454;28;20126;-73
2023/06/19 04:15:28;;;;;;;11.18;10.05;;;;;;;;;;10248002;28;20047;-76
2023/06/19 04:20:28;;;;;;;11.30;10.10;;;;;;;;;;10259906;28;20081;-75
2023/06/19 04:25:29;;;;;;;11.17;10.17;;;;;;;;;;10248319;28;20094;-75
2023/06/19 04:30:30;;;;;;;10.75;9.73;;;;;;;;;;10262115;28;20306;-74
2023/06/19 04:35:31;;;;;;;10.07;9.13;;;;;;;;;;10274780;28;20043;-82
2023/06/19 04:40:32;;;;;;;10.03;9.13;;;;;;;;;;10273037;28;20042;-77
2023/06/19 04:45:32;;;;;;;11.13;10.00;;;;;;;;;;10256759;28;20577;-79
2023/06/19 04:50:32;;;;;;;12.02;10.82;;;;;;;;;;10268607;28;20098;-79
2023/06/19 04:55:33;;;;;;;11.43;10.10;;;;;;;;;;10267177;28;20570;-79
2023/06/19 05:00:33;;;;;;;11.30;9.93;;;;;;;;;;10260662;28;20049;-76
2023/06/19 05:05:34;;;;;;;11.20;10.10;;;;;;;;;;10269222;28;20302;-82
2023/06/19 05:10:34;;;;;;;10.87;9.47;;;;;;;;;;10254182;28;20042;-83
2023/06/19 05:15:34;;;;;;;10.73;9.63;;;;;;;;;;10267214;28;20069;-83
2023/06/19 05:20:34;;;;;;;12.57;10.03;;;;;;;;;;10263569;28;20035;-79
2023/06/19 05:25:35;;;;;;;12.05;10.75;;;;;;;;;;10249488;28;20054;-78
2023/06/19 05:30:35;;;;;;;12.20;10.77;;;;;;;;;;10265224;28;20069;-75
2023/06/19 05:35:39;;;;;;;12.10;10.77;;;;;;;;;;10263418;28;20444;-74
2023/06/19 05:40:42;;;;;;;13.25;11.35;;;;;;;;;;10261120;28;20055;-75
2023/06/19 05:45:42;;;;;;;12.00;10.23;;;;;;;;;;10261486;28;20569;-74
2023/06/19 05:50:43;;;;;;;12.83;11.30;;;;;;;;;;10261885;28;20286;-74
2023/06/19 05:55:43;;;;;;;11.83;10.00;;;;;;;;;;10262786;28;20400;-75
2023/06/19 06:00:43;;;;;;;12.23;11.03;;;;;;;;;;10259341;28;20305;-74
2023/06/19 06:05:48;;;;;;;12.00;10.80;;;;;;;;;;10262393;28;20142;-73
2023/06/19 06:10:51;;;;;;;11.45;10.35;;;;;;;;;;10261635;28;20071;-74
2023/06/19 06:15:52;;;;;;;12.33;11.13;;;;;;;;;;10250108;28;20078;-75
2023/06/19 06:20:52;;;;;;;12.38;10.93;;;;;;;;;;10281069;28;20045;-74
2023/06/19 06:25:52;;;;;;;20.77;18.67;;;;;;;;;;10261880;28;20047;-78
2023/06/19 06:30:53;;;;;;;11.73;10.63;;;;;;;;;;10262631;28;20122;-78
2023/06/19 06:35:54;;;;;;;9.18;8.27;;;;;;;;;;10261598;28;20089;-77
2023/06/19 06:40:55;;;;;;;8.05;6.80;;;;;;;;;;10268692;28;20050;-78
2023/06/19 06:45:55;;;;;;;6.80;6.20;;;;;;;;;;10257204;28;20054;-76
2023/06/19 06:51:01;;;;;;;6.70;6.00;;;;;;;;;;10260124;28;20058;-77
2023/06/19 06:56:02;;;;;;;10.18;9.18;;;;;;;;;;10279121;28;20035;-77
2023/06/19 07:01:03;;;;;;;7.53;6.07;;;;;;;;;;10288445;28;20150;-78
2023/06/19 07:06:03;;;;;;;5.83;5.30;;;;;;;;;;10259516;28;20193;-78
2023/06/19 07:11:03;;;;;;;6.20;5.60;;;;;;;;;;10256294;28;20395;-78
2023/06/19 07:16:04;;;;;;;6.13;4.78;;;;;;;;;;10258330;28;20063;-77
2023/06/19 07:21:08;;;;;;;6.03;4.80;;;;;;;;;;10259748;28;20043;-77
2023/06/19 07:26:10;;;;;;;5.32;4.82;;;;;;;;;;10260964;28;20078;-78
2023/06/19 07:31:10;;;;;;;6.85;6.22;;;;;;;;;;10268037;28;20059;-78
2023/06/19 07:36:13;;;;;;;5.43;4.93;;;;;;;;;;10266755;28;20047;-78
2023/06/19 07:41:14;;;;;;;6.85;5.00;;;;;;;;;;10265792;28;20062;-78
2023/06/19 07:46:15;;;;;;;5.25;4.60;;;;;;;;;;10271807;28;20051;-78
2023/06/19 07:51:15;;;;;;;6.05;5.45;;;;;;;;;;10266096;28;20140;-78
2023/06/19 07:56:18;;;;;;;5.53;5.03;;;;;;;;;;10266812;28;20043;-78
2023/06/19 08:01:19;;;;;;;7.20;6.32;;;;;;;;;;10264965;28;20189;-74
2023/06/19 08:06:19;;;;;;;5.75;4.50;;;;;;;;;;10267037;28;20109;-74
2023/06/19 08:11:20;;;;;;;5.90;4.50;;;;;;;;;;10262895;28;20495;-74
2023/06/19 08:16:21;;;;;;;4.60;4.20;;;;;;;;;;10263969;28;20387;-74
2023/06/19 08:21:21;;;;;;;4.43;4.03;;;;;;;;;;10265441;28;20063;-74
2023/06/19 08:26:25;;;;;;;4.73;4.33;;;;;;;;;;10269080;28;20310;-74
2023/06/19 08:31:27;;;;;;;4.93;4.43;;;;;;;;;;10252716;28;21113;-75
2023/06/19 08:36:28;;;;;;;;;;;;;;;;;;10250118;28;20054;-74
2023/06/19 08:41:29;;;;;;;4.60;4.20;;;;;;;;;;10254294;28;20468;-75
2023/06/19 08:46:31;;;;;;;4.32;3.90;;;;;;;;;;10264439;28;20062;-75
2023/06/19 08:51:32;;;;;;;5.47;4.40;;;;;;;;;;10264018;28;20042;-78
2023/06/19 08:56:37;;;;;;;5.18;4.40;;;;;;;;;;10247422;28;20057;-79
2023/06/19 09:01:51;;;;;;;4.50;4.10;;;;;;;;;;10262693;28;20058;-76
2023/06/19 09:07:07;;;;;;;4.68;4.15;;;;;;;;;;10262360;28;20405;-77
2023/06/19 09:12:17;;;;;;;5.13;4.32;;;;;;;;;;10253715;28;20057;-77
2023/06/19 09:17:26;;;;;;;4.63;4.05;;;;;;;;;;10251098;28;20049;-77
2023/06/19 09:22:29;;;;;;;4.38;3.85;;;;;;;;;;10272383;28;20070;-77
2023/06/19 09:27:33;;;;;;;5.75;5.07;;;;;;;;;;10288668;28;20078;-83
2023/06/19 09:32:34;;;;;;;4.72;4.25;;;;;;;;;;10266339;28;20042;-78
2023/06/19 09:37:38;;;;;;;4.78;4.30;;;;;;;;;;10262292;28;20069;-77
2023/06/19 09:42:40;;;;;;;4.40;4.00;;;;;;;;;;10260677;28;20561;-77
2023/06/19 09:47:46;;;;;;;4.38;3.97;;;;;;;;;;10254598;28;20481;-76
2023/06/19 09:52:47;;;;;;;3.87;3.57;;;;;;;;;;10268233;28;20039;-77
2023/06/19 09:57:51;;;;;;;4.40;3.92;;;;;;;;;;10247891;28;20430;-77
2023/06/19 10:02:51;;;;;;;4.32;4.03;;;;;;;;;;10266607;28;20117;-77
2023/06/19 10:07:52;;;;;;;4.88;4.38;;;;;;;;;;10268634;28;20055;-76
2023/06/19 10:12:58;;;;;;;4.50;4.10;;;;;;;;;;10267864;28;20095;-76
2023/06/19 10:18:03;;;;;;;5.30;4.60;;;;;;;;;;10259997;28;20043;-77
2023/06/19 10:23:18;;;;;;;5.78;4.57;;;;;;;;;;10258918;28;20042;-78
2023/06/19 10:28:29;;;;;;;4.75;4.35;;;;;;;;;;10258914;28;20069;-78
2023/06/19 10:33:32;;;;;;;4.90;4.50;;;;;;;;;;10249664;28;20071;-76
2023/06/19 10:38:32;;;;;;;4.72;4.30;;;;;;;;;;10255371;28;20055;-77
2023/06/19 10:43:32;;;;;;;5.33;4.23;;;;;;;;;;10256354;28;20047;-76
2023/06/19 10:48:33;;;;;;;4.33;3.93;;;;;;;;;;10257269;28;20499;-77
2023/06/19 10:53:33;;;;;;;6.00;4.60;;;;;;;;;;10261406;28;20039;-77
2023/06/19 10:58:36;;;;;;;4.40;4.03;;;;;;;;;;10266166;28;20047;-75
2023/06/19 11:03:37;;;;;;;4.68;4.28;;;;;;;;;;10277766;28;20077;-76
2023/06/19 11:08:37;;;;;;;4.70;4.30;;;;;;;;;;10268946;28;20074;-76
2023/06/19 11:13:40;;;;;;;4.63;4.23;;;;;;;;;;10275015;28;20047;-76
2023/06/19 11:18:41;;;;;;;4.72;4.32;;;;;;;;;;10272850;28;20050;-76
2023/06/19 11:23:47;;;;;;;5.68;4.25;;;;;;;;;;10272318;28;20066;-76
2023/06/19 11:28:48;;;;;;;4.55;4.03;;;;;;;;;;10269968;28;20117;-77
2023/06/19 11:33:55;;;;;;;4.90;4.50;;;;;;;;;;10275068;28;20039;-76
2023/06/19 11:38:56;;;;;;;4.68;4.28;;;;;;;;;;10276050;28;20046;-74
2023/06/19 11:44:00;;;;;;;4.30;3.90;;;;;;;;;;10272487;28;20043;-77
2023/06/19 11:49:07;;;;;;;3.92;3.53;;;;;;;;;;10316254;28;20943;-76
2023/06/19 11:54:09;;;;;;;3.95;3.65;;;;;;;;;;10270483;28;20043;-76
2023/06/19 11:59:10;;;;;;;5.10;3.60;;;;;;;;;;10254854;28;20050;-75
2023/06/19 12:04:10;;;;;;;3.45;3.17;;;;;;;;;;10260203;28;20150;-76
2023/06/19 12:09:11;;;;;;;4.23;3.83;;;;;;;;;;10270412;28;20065;-76
2023/06/19 12:14:12;;;;;;;3.80;3.45;;;;;;;;;;10263593;28;20047;-76
2023/06/19 12:19:13;;;;;;;;;;;;;;;;;;10262605;28;20601;-77
2023/06/19 12:24:14;;;;;;;4.80;4.22;;;;;;;;;;10264321;28;19922;-75
2023/06/19 12:29:14;;;;;;;4.63;3.80;;;;;;;;;;10264961;28;20127;-76
2023/06/19 12:34:15;;;;;;;4.50;4.10;;;;;;;;;;10261081;28;20078;-77
2023/06/19 12:39:16;;;;;;;4.57;4.17;;;;;;;;;;10264456;28;20042;-76
2023/06/19 12:44:24;;;;;;;4.97;4.10;;;;;;;;;;10265113;28;20122;-76
2023/06/19 12:49:24;;;;;;;4.30;4.00;;;;;;;;;;10265939;28;20070;-75
2023/06/19 12:54:25;;;;;;;3.83;3.50;;;;;;;;;;10260594;28;20519;-74
2023/06/19 12:59:26;;;;;;;4.10;3.80;;;;;;;;;;10264897;28;20050;-75
2023/06/19 13:04:26;;;;;;;4.60;3.87;;;;;;;;;;10266150;28;20046;-74
2023/06/19 13:09:26;;;;;;;4.97;3.70;;;;;;;;;;10265727;28;20058;-75
2023/06/19 13:14:27;;;;;;;4.00;3.60;;;;;;;;;;10267560;28;20054;-76
2023/06/19 13:19:27;;;;;;;3.97;3.67;;;;;;;;;;10265976;28;20054;-75
2023/06/19 13:24:27;;;;;;;3.57;3.30;;;;;;;;;;10263162;28;20073;-75
2023/06/19 13:29:33;;;;;;;4.25;3.30;;;;;;;;;;10261695;28;20590;-75
2023/06/19 13:34:34;;;;;;;3.85;3.55;;;;;;;;;;10265609;28;20028;-77
2023/06/19 13:39:34;;;;;;;3.90;3.60;;;;;;;;;;10270226;28;20043;-76
2023/06/19 13:44:35;;;;;;;4.00;3.70;;;;;;;;;;10262964;28;20055;-75
2023/06/19 13:49:35;;;;;;;5.87;4.40;;;;;;;;;;10261723;28;20803;-74
2023/06/19 13:54:38;;;;;;;4.70;4.00;;;;;;;;;;10261970;28;20296;-76
2023/06/19 13:59:39;;;;;;;5.18;4.50;;;;;;;;;;10261297;28;20047;-76
2023/06/19 14:04:39;;;;;;;5.30;4.60;;;;;;;;;;10249818;28;20144;-75
2023/06/19 14:09:41;;;;;;;4.53;4.13;;;;;;;;;;10263942;28;20066;-75
2023/06/19 14:14:41;;;;;;;4.53;4.20;;;;;;;;;;10256924;28;20042;-78
2023/06/19 14:19:41;;;;;;;4.53;4.10;;;;;;;;;;10257086;28;20069;-78
2023/06/19 14:24:49;;;;;;;7.25;4.82;;;;;;;;;;10261967;28;20145;-78
2023/06/19 14:29:50;;;;;;;6.35;4.90;;;;;;;;;;10271589;28;20050;-75
2023/06/19 14:34:50;;;;;;;6.20;5.60;;;;;;;;;;10273719;28;20440;-75
2023/06/19 14:39:54;;;;;;;5.63;4.90;;;;;;;;;;10267679;28;20035;-76
2023/06/19 14:44:55;;;;;;;4.50;4.20;;;;;;;;;;10269050;28;20054;-76
2023/06/19 14:49:55;;;;;;;5.33;4.83;;;;;;;;;;10265323;28;20055;-76
2023/06/19 14:54:55;;;;;;;5.13;4.57;;;;;;;;;;10263204;28;20106;-77
2023/06/19 14:59:56;;;;;;;4.93;4.53;;;;;;;;;;10257361;28;20044;-78
2023/06/19 15:04:56;;;;;;;4.67;4.27;;;;;;;;;;10261158;28;20100;-76
2023/06/19 15:09:58;;;;;;;5.55;5.05;;;;;;;;;;10260254;28;20059;-76
2023/06/19 15:14:58;;;;;;;5.27;4.77;;;;;;;;;;10249331;28;20039;-76
2023/06/19 15:19:59;;;;;;;5.40;5.00;;;;;;;;;;10257695;28;20061;-78
2023/06/19 15:24:59;;;;;;;4.73;4.33;;;;;;;;;;10256869;28;20053;-76
2023/06/19 15:30:00;;;;;;;5.03;4.47;;;;;;;;;;10253609;28;20101;-76
2023/06/19 15:35:00;;;;;;;5.83;4.90;;;;;;;;;;10255251;28;20051;-77
2023/06/19 15:40:01;;;;;;;5.10;4.60;;;;;;;;;;10243862;28;20992;-78
2023/06/19 15:45:02;;;;;;;4.80;4.25;;;;;;;;;;10260724;28;20078;-75
2023/06/19 15:50:03;;;;;;;4.83;4.20;;;;;;;;;;10268504;28;20211;-76
2023/06/19 15:55:04;;;;;;;4.68;4.03;;;;;;;;;;10267600;28;20329;-75
2023/06/19 16:00:05;;;;;;;4.27;3.87;;;;;;;;;;10269902;28;20423;-76
2023/06/19 16:05:15;;;;;;;4.35;3.95;;;;;;;;;;10268486;28;20658;-76
2023/06/19 16:10:16;;;;;;;4.85;4.00;;;;;;;;;;10269682;28;20077;-76
2023/06/19 16:15:23;;;;;;;5.07;4.60;;;;;;;;;;10270029;28;20057;-77
2023/06/19 16:20:23;;;;;;;4.93;4.43;;;;;;;;;;10266014;28;20469;-76
2023/06/19 16:25:23;;;;;;;4.50;4.10;;;;;;;;;;10266543;28;20051;-76
2023/06/19 16:30:24;;;;;;;4.33;3.93;;;;;;;;;;10266048;28;20438;-77
2023/06/19 16:35:24;;;;;;;4.50;4.10;;;;;;;;;;10271403;28;20047;-77
2023/06/19 16:40:24;;;;;;;4.97;4.40;;;;;;;;;;10260654;28;20337;-75
2023/06/19 16:45:27;;;;;;;4.67;4.27;;;;;;;;;;10268194;28;20049;-76
2023/06/19 16:50:27;;;;;;;4.95;4.32;;;;;;;;;;10265226;28;20061;-75
2023/06/19 16:55:27;;;;;;;4.50;4.10;;;;;;;;;;10265447;28;20483;-79
2023/06/19 17:00:28;;;;;;;5.93;4.33;;;;;;;;;;10266628;28;20035;-75
2023/06/19 17:05:28;;;;;;;4.77;4.27;;;;;;;;;;10264411;28;20047;-76
2023/06/19 17:10:28;;;;;;;4.87;4.30;;;;;;;;;;10265259;28;20054;-75
2023/06/19 17:15:30;;;;;;;4.93;4.47;;;;;;;;;;10264189;28;20046;-76
2023/06/19 17:20:30;;;;;;;4.68;4.28;;;;;;;;;;10248737;28;20042;-75
2023/06/19 17:25:31;;;;;;;6.20;4.50;;;;;;;;;;10264691;28;20035;-76
2023/06/19 17:30:31;;;;;;;6.53;5.40;;;;;;;;;;10264537;28;20571;-76
2023/06/19 17:35:32;;;;;;;5.03;4.13;;;;;;;;;;10262397;28;20493;-75
2023/06/19 17:40:32;;;;;;;4.43;4.03;;;;;;;;;;10267207;28;20042;-77
2023/06/19 17:45:33;;;;;;;4.63;4.23;;;;;;;;;;10252861;28;20070;-76
2023/06/19 17:50:34;;;;;;;5.23;4.00;;;;;;;;;;10263882;28;20058;-76
2023/06/19 17:55:34;;;;;;;5.50;4.30;;;;;;;;;;10262518;28;20043;-76
2023/06/19 18:00:34;;;;;;;4.57;4.13;;;;;;;;;;10263829;28;20527;-77
2023/06/19 18:05:35;;;;;;;5.10;4.43;;;;;;;;;;10262607;28;20389;-75
2023/06/19 18:10:35;;;;;;;4.97;4.47;;;;;;;;;;10260990;28;20059;-76
2023/06/19 18:15:36;;;;;;;4.27;3.87;;;;;;;;;;10261058;28;20712;-75
2023/06/19 18:20:36;;;;;;;4.67;4.20;;;;;;;;;;10263478;28;20050;-77
2023/06/19 18:25:37;;;;;;;4.93;4.37;;;;;;;;;;10258324;28;20055;-77
2023/06/19 18:30:37;;;;;;;4.13;3.57;;;;;;;;;;10263901;28;20426;-78
2023/06/19 18:35:38;;;;;;;5.13;4.63;;;;;;;;;;10270483;28;20144;-78
2023/06/19 18:40:41;;;;;;;6.43;5.63;;;;;;;;;;10272166;28;20043;-77
2023/06/19 18:45:42;;;;;;;6.47;5.63;;;;;;;;;;10263680;28;21007;-77
2023/06/19 18:50:42;;;;;;;4.90;4.40;;;;;;;;;;10258232;28;20047;-79
2023/06/19 18:55:42;;;;;;;5.47;4.97;;;;;;;;;;10262499;28;20071;-79
2023/06/19 19:00:43;;;;;;;5.40;4.90;;;;;;;;;;10262749;28;20074;-78
2023/06/19 19:05:43;;;;;;;6.13;5.53;;;;;;;;;;10265767;28;20058;-80
2023/06/19 19:10:44;;;;;;;6.82;5.38;;;;;;;;;;10263958;28;20050;-78
2023/06/19 19:15:44;;;;;;;5.73;5.23;;;;;;;;;;10257120;28;20070;-77
2023/06/19 19:20:45;;;;;;;5.60;5.03;;;;;;;;;;10265652;28;20451;-76
2023/06/19 19:25:46;;;;;;;6.77;6.07;;;;;;;;;;10254736;28;20054;-77
2023/06/19 19:30:46;;;;;;;7.05;6.00;;;;;;;;;;10268403;28;20054;-82
2023/06/19 19:35:46;;;;;;;6.63;5.93;;;;;;;;;;10255011;28;20459;-82
2023/06/19 19:40:47;;;;;;;7.50;6.80;;;;;;;;;;10277565;28;20055;-82
2023/06/19 19:45:47;;;;;;;6.22;5.63;;;;;;;;;;10274022;28;20381;-82
2023/06/19 19:50:48;;;;;;;6.70;6.03;;;;;;;;;;10300506;28;20047;-81
2023/06/19 19:55:48;;;;;;;7.18;5.70;;;;;;;;;;10288776;28;20294;-81
2023/06/19 20:00:49;;;;;;;6.82;6.13;;;;;;;;;;10265348;28;20130;-75
2023/06/19 20:05:49;;;;;;;8.02;6.50;;;;;;;;;;10265781;28;20043;-77
2023/06/19 20:10:50;;;;;;;6.33;5.73;;;;;;;;;;10270221;28;20035;-75
2023/06/19 20:15:50;;;;;;;6.73;6.10;;;;;;;;;;10263273;28;20051;-77
2023/06/19 20:20:50;;;;;;;6.30;5.70;;;;;;;;;;10263147;28;20586;-77
2023/06/19 20:25:51;;;;;;;6.63;5.97;;;;;;;;;;10264904;28;20286;-79
2023/06/19 20:30:51;;;;;;;7.05;5.70;;;;;;;;;;10267134;28;20290;-80
2023/06/19 20:35:52;;;;;;;6.03;5.53;;;;;;;;;;10246001;28;20050;-75
2023/06/19 20:40:52;;;;;;;5.77;5.20;;;;;;;;;;10263350;28;20047;-77
2023/06/19 20:45:53;;;;;;;6.00;5.45;;;;;;;;;;10266710;28;20034;-76
2023/06/19 20:50:54;;;;;;;6.47;5.88;;;;;;;;;;10265363;28;20121;-76
2023/06/19 20:55:54;;;;;;;6.70;6.10;;;;;;;;;;10265194;28;20051;-74
2023/06/19 21:00:54;;;;;;;6.67;5.97;;;;;;;;;;10260219;28;20678;-75
2023/06/19 21:05:58;;;;;;;7.22;6.53;;;;;;;;;;10263295;28;20546;-76
2023/06/19 21:10:58;;;;;;;8.20;6.55;;;;;;;;;;10264145;28;20066;-75
2023/06/19 21:15:58;;;;;;;7.13;6.43;;;;;;;;;;10266658;28;20050;-75
2023/06/19 21:20:59;;;;;;;6.97;6.37;;;;;;;;;;10253056;28;20078;-76
2023/06/19 21:25:59;;;;;;;7.50;6.60;;;;;;;;;;10266025;28;20046;-78
2023/06/19 21:30:59;;;;;;;7.43;6.73;;;;;;;;;;10264167;28;20050;-77
2023/06/19 21:36:00;;;;;;;7.73;6.97;;;;;;;;;;10262064;28;20091;-76
2023/06/19 21:41:01;;;;;;;7.03;6.32;;;;;;;;;;10250130;28;20077;-77
2023/06/19 21:46:01;;;;;;;6.95;6.25;;;;;;;;;;10266735;28;20062;-74
2023/06/19 21:51:02;;;;;;;7.10;6.40;;;;;;;;;;10236516;28;20085;-77
2023/06/19 21:56:03;;;;;;;7.10;6.40;;;;;;;;;;10268174;28;20095;-77
2023/06/19 22:01:03;;;;;;;7.38;6.68;;;;;;;;;;10266730;28;20049;-76
2023/06/19 22:06:04;;;;;;;8.00;6.83;;;;;;;;;;10265608;28;20044;-76
2023/06/19 22:11:04;;;;;;;8.00;7.20;;;;;;;;;;10262138;28;20270;-77
2023/06/19 22:16:05;;;;;;;7.47;6.60;;;;;;;;;;10260139;28;21439;-76
2023/06/19 22:21:05;;;;;;;6.88;6.18;;;;;;;;;;10267331;28;20050;-75
2023/06/19 22:26:05;;;;;;;7.80;6.87;;;;;;;;;;10261511;28;20051;-75
2023/06/19 22:31:06;;;;;;;7.33;6.63;;;;;;;;;;10266557;28;20595;-78
2023/06/19 22:36:10;;;;;;;8.90;6.82;;;;;;;;;;10244662;28;20065;-76
2023/06/19 22:41:10;;;;;;;7.50;6.80;;;;;;;;;;10264115;28;20129;-77
2023/06/19 22:46:13;;;;;;;7.47;6.77;;;;;;;;;;10259921;28;20467;-77
2023/06/19 22:51:13;;;;;;;7.75;6.78;;;;;;;;;;10260256;28;20043;-74
2023/06/19 22:56:14;;;;;;;7.57;6.88;;;;;;;;;;10254604;28;20101;-74
2023/06/19 23:01:14;;;;;;;8.20;7.40;;;;;;;;;;10265095;28;20104;-75
2023/06/19 23:06:14;;;;;;;7.77;7.03;;;;;;;;;;10254351;28;20538;-76
2023/06/19 23:11:16;;;;;;;7.53;6.60;;;;;;;;;;10254277;28;20828;-78
2023/06/19 23:16:16;;;;;;;9.37;7.53;;;;;;;;;;10260039;28;20110;-74
2023/06/19 23:21:17;;;;;;;7.93;6.67;;;;;;;;;;10265025;28;20823;-76
2023/06/19 23:26:23;;;;;;;8.13;7.17;;;;;;;;;;10259762;28;20349;-76
2023/06/19 23:31:23;;;;;;;8.35;7.57;;;;;;;;;;10260551;28;20058;-76
2023/06/19 23:36:24;;;;;;;10.20;7.57;;;;;;;;;;10261657;28;20609;-76
2023/06/19 23:41:24;;;;;;;7.22;6.55;;;;;;;;;;10261832;28;20078;-74
2023/06/19 23:46:24;;;;;;;7.37;6.67;;;;;;;;;;10267146;28;20063;-78
2023/06/19 23:51:25;;;;;;;7.70;7.00;;;;;;;;;;10270128;28;20047;-74
2023/06/19 23:56:25;;;;;;;7.53;6.83;;;;;;;;;;10260714;28;20046;-74
